Weather observations for the past three days for
Vernal Airport
Imperial (Metric)
Date Time (mdt) Wind (mph) Vis. (mi.) Weather Sky Cond. Temperature (ºF) Relative Humidity Wind Chill (°F) Heat Index (°F) Pressure Precipitation (in)
Air Dwpt 6 hour altimeter (in) sea level (mb) 1 hr 3 hr 6 hr
Max. Min.
05 06:53 NW 3 10.00 Fair CLR 57 43 60% 30.12 1013.6
05 05:53 NW 3 10.00 Fair CLR 61 41 64.9 57 48% 30.1 1012.4
05 03:53 NW 7 10.00 Fair CLR 59 43 56% 30.08 1012.1
05 02:53 W 3 10.00 Fair CLR 59 43 56% 30.08 1011.8
05 01:53 W 5 10.00 Fair CLR 59 43 56% 30.07 1011.8
05 00:53 W 3 10.00 Fair CLR 60.1 44.1 56% 30.06 1011.4
04 23:53 Calm 10.00 Fair CLR 64.9 42.1 84 64 43% 30.05 1010.8
04 22:53 NW 7 10.00 Fair CLR 69.1 39 33% 30.04 1010.5
04 20:53 SW 8 10.00 Fair CLR 72 37.9 29% 30.02 1010.4
04 19:53 SW 12 10.00 Fair CLR 78.1 37 23% 78 30.01 1009.9
04 18:53 SW 12 10.00 Fair CLR 82 39 22% 80 30 1009.6
04 17:53 SW 12 10.00 Fair CLR 84 39.9 86 78.1 21% 81 30 1009.4
04 16:53 SW 14 G 22 10.00 Fair CLR 84.9 37.9 19% 82 30 1009.2
04 15:53 SW 16 G 26 10.00 Fair CLR 84.9 39.9 20% 82 30.01 1009.7
04 14:53 SW 17 G 26 10.00 Fair CLR 84 39.9 21% 81 30.02 1009.8
04 13:53 SW 12 G 22 10.00 Fair CLR 82.9 44.1 25% 81 30.04 1010.6
04 12:53 SW 12 G 22 10.00 Fair CLR 81 45 28% 80 30.06 1011.5
04 11:53 SW 10 G 20 10.00 Fair CLR 78.1 44.1 78.1 53.1 30% 78 30.08 1012.7
04 10:53 SW 6 10.00 Fair CLR 73.9 44.1 34% 30.08 1012.8
04 09:53 Calm 10.00 Fair CLR 71.1 42.1 35% 30.08 1012.7
04 08:53 NW 3 10.00 Fair CLR 66.9 39.9 37% 30.07 1012.0
04 07:53 Calm 10.00 Fair CLR 60.1 43 53% 30.06 1012.1
04 06:53 Vrbl 3 10.00 Fair CLR 55 41 59% 30.03 1011.0
04 05:53 NW 6 10.00 Fair CLR 55.9 41 61 54 57% 30 1009.8
04 04:53 NW 6 10.00 Fair CLR 57.9 39.9 51% 29.99 1009.3
04 03:53 W 5 10.00 Fair CLR 57 39.9 53% 29.98 1009.0
04 02:53 NW 6 10.00 Fair CLR 59 39.9 49% 29.97 1008.6
04 01:53 W 6 10.00 Fair CLR 59 39.9 49% 29.98 1009.0
04 00:53 W 6 10.00 Fair CLR 57.9 42.1 56% 29.98 1009.3
03 23:53 W 3 10.00 Fair CLR 57 44.1 81 57 62% 29.98 1009.6
03 22:53 N 9 10.00 Fair CLR 62.1 39 43% 29.98 1009.4
03 21:53 NW 7 10.00 Fair CLR 63 39 41% 29.98 1009.5
03 20:53 SW 7 10.00 Fair CLR 70 36 29% 29.96 1009.0
03 19:53 SW 6 10.00 Fair CLR 73 34 24% 29.96 1008.9
03 18:53 SW 7 10.00 Fair CLR 79 28.9 16% 78 29.96 1009.0
03 17:53 S 10 10.00 Fair CLR 81 25 82.9 73 13% 79 29.97 1009.2
03 16:53 SW 10 10.00 Fair CLR 82 23 11% 80 29.98 1009.3
03 15:53 SE 6 10.00 Fair CLR 81 27 14% 79 30 1009.8
03 14:53 S 5 10.00 Fair CLR 80.1 24.1 13% 78 30.02 1010.5
03 13:53 SW 8 10.00 Fair CLR 78.1 25 14% 77 30.04 1011.1
03 12:53 SW 7 10.00 Fair CLR 75.9 27 16% 76 30.06 1012.3
03 11:53 S 7 10.00 Fair CLR 73 35.1 73 48.9 25% 30.08 1013.1
03 10:53 S 6 10.00 Fair CLR 69.1 41 36% 30.09 1013.6
03 09:53 SE 5 10.00 Fair CLR 66 46.9 50% 30.09 1013.7
03 08:53 Calm 10.00 Fair CLR 62.1 42.1 48% 30.09 1013.9
03 07:53 NW 6 10.00 Fair CLR 55.9 41 57% 30.07 1013.5
03 06:53 NW 5 10.00 Fair CLR 50 42.1 74% 49 30.06 1013.4
03 05:53 W 3 10.00 Fair CLR 50 43 59 50 77% 30.04 1012.3
03 04:53 W 5 10.00 Fair CLR 51.1 44.1 77% 30.03 1011.9
03 03:53 W 3 10.00 Fair CLR 54 45 72% 30.02 1011.8
03 02:53 NW 6 10.00 Fair CLR 55.9 46 70% 30.01 1010.2
03 01:53 W 6 10.00 Fair CLR 57 48 72% 30.01 1009.9
03 00:53 Calm 10.00 Fair CLR 55 48.9 80% 30 1010.1
02 23:53 W 6 10.00 Fair CLR 59 50 73 57.9 72% 29.99 1009.6
02 22:53 Calm 10.00 Fair CLR 59 52 78% 30 1010.2
02 21:53 Calm 10.00 Fair CLR 60.1 52 75% 30 1010.6
02 20:53 N 3 10.00 Fair CLR 64 50 60% 29.98 1009.9
02 19:53 N 10 10.00 Partly Cloudy SCT110 66.9 48 51% 29.97 1009.7
02 18:53 Calm 10.00 Mostly Cloudy BKN100 70 53.1 55% 29.97 1009.9
02 17:53 W 3 10.00 Partly Cloudy FEW090 SCT120 73 48.9 81 63 43% 29.98 1009.8 0.04
02 16:53 W 3 10.00 Partly Cloudy SCT110 73 48 41% 30 1010.6
02 15:53 W 3 10.00 Thunderstorm in Vicinity FEW035 BKN075 OVC090 66.9 55 66% 30.03 1011.8 0.04
02 14:53 SW 12 G 20 10.00 A Few Clouds FEW075 FEW090 FEW120 79 45 30% 79 30.03 1010.9
02 13:53 S 14 G 25 10.00 Fair CLR 80.1 46.9 31% 79 30.04 1010.8
02 12:53 SW 15 10.00 A Few Clouds FEW110 78.1 50 37% 79 30.07 1012.0
02 11:53 SW 15 10.00 Fair CLR 75.9 51.1 75.9 53.1 42% 78 30.09 1013.1
02 10:53 SW 6 10.00 Fair CLR 70 51.1 51% 30.1 1013.7
02 09:53 Calm 10.00 Fair CLR 66 50 56% 30.11 1013.9
02 08:53 Calm 10.00 Fair CLR 64 51.1 63% 30.12 1014.3
02 07:53 Calm 10.00 A Few Clouds FEW090 59 52 78% 30.12 1014.5
Date Time (mdt) Wind (mph) Vis. (mi.) Weather Sky Cond. Air Dwpt Max. Min. Relative Humidity Wind Chill (°F) Heat Index (°F) altimeter (in) sea level (mb) 1 hr 3 hr 6 hr
6 hour
Temperature (ºF) Pressure Precipitation (in)